createdAt,value
2017-05-21T00:00:56.383Z,1024.38
2017-05-21T00:01:58.229Z,1024.35
2017-05-21T00:03:00.065Z,1024.38
2017-05-21T00:04:01.880Z,1024.39
2017-05-21T00:05:03.968Z,1024.37
2017-05-21T00:06:05.789Z,1024.38
2017-05-21T00:07:07.626Z,1024.40
2017-05-21T00:08:09.473Z,1024.36
2017-05-21T00:09:23.570Z,1024.38
2017-05-21T00:10:25.422Z,1024.38
2017-05-21T00:11:27.269Z,1024.34
2017-05-21T00:12:29.108Z,1024.35
2017-05-21T00:13:30.923Z,1024.32
2017-05-21T00:14:32.736Z,1024.32
2017-05-21T00:15:34.597Z,1024.32
2017-05-21T00:16:36.421Z,1024.34
2017-05-21T00:17:38.257Z,1024.33
2017-05-21T00:18:52.413Z,1024.32
2017-05-21T00:19:54.250Z,1024.36
2017-05-21T00:20:56.392Z,1024.36
2017-05-21T00:21:58.212Z,1024.39
2017-05-21T00:23:00.048Z,1024.37
2017-05-21T00:24:01.871Z,1024.38
2017-05-21T00:25:03.703Z,1024.40
2017-05-21T00:26:05.570Z,1024.36
2017-05-21T00:27:07.409Z,1024.40
2017-05-21T00:28:21.512Z,1024.43
2017-05-21T00:29:23.349Z,1024.45
2017-05-21T00:30:25.191Z,1024.47
2017-05-21T00:31:27.034Z,1024.48
2017-05-21T00:32:28.873Z,1024.51
2017-05-21T00:33:30.717Z,1024.53
2017-05-21T00:34:32.555Z,1024.52
2017-05-21T00:35:34.398Z,1024.56
2017-05-21T00:36:36.440Z,1024.61
2017-05-21T00:37:50.563Z,1024.58
2017-05-21T00:38:52.408Z,1024.56
2017-05-21T00:39:54.248Z,1024.58
2017-05-21T00:40:56.093Z,1024.60
2017-05-21T00:41:58.026Z,1024.61
2017-05-21T00:42:59.846Z,1024.58
2017-05-21T00:44:01.684Z,1024.63
2017-05-21T00:45:03.503Z,1024.63
2017-05-21T00:46:05.343Z,1024.62
2017-05-21T00:47:19.493Z,1024.61
2017-05-21T00:48:21.329Z,1024.59
2017-05-21T00:49:23.172Z,1024.62
2017-05-21T00:50:25.016Z,1024.61
2017-05-21T00:51:26.852Z,1024.59
2017-05-21T00:52:28.945Z,1024.60
2017-05-21T00:53:30.781Z,1024.59
2017-05-21T00:54:32.603Z,1024.59
2017-05-21T00:55:34.444Z,1024.59
2017-05-21T00:56:48.617Z,1024.60
2017-05-21T00:57:50.452Z,1024.62
2017-05-21T00:58:52.275Z,1024.62
2017-05-21T00:59:54.112Z,1024.62
2017-05-21T01:00:55.954Z,1024.65
2017-05-21T01:01:57.785Z,1024.65
2017-05-21T01:02:59.907Z,1024.67
2017-05-21T01:04:01.745Z,1024.67
2017-05-21T01:05:03.563Z,1024.63
2017-05-21T01:06:17.737Z,1024.65
2017-05-21T01:07:19.573Z,1024.67
2017-05-21T01:08:21.491Z,1024.66
2017-05-21T01:09:23.304Z,1024.65
2017-05-21T01:10:25.124Z,1024.69
2017-05-21T01:11:26.966Z,1024.68
2017-05-21T01:12:28.803Z,1024.67
2017-05-21T01:13:30.874Z,1024.64
2017-05-21T01:14:32.716Z,1024.67
2017-05-21T01:15:46.886Z,1024.70
2017-05-21T01:16:48.727Z,1024.66
2017-05-21T01:17:50.575Z,1024.64
2017-05-21T01:18:52.715Z,1024.67
2017-05-21T01:19:54.560Z,1024.67
2017-05-21T01:20:56.396Z,1024.68
2017-05-21T01:21:58.239Z,1024.66
2017-05-21T01:23:00.074Z,1024.64
2017-05-21T01:24:01.940Z,1024.62
2017-05-21T01:25:16.086Z,1024.64
2017-05-21T01:26:17.921Z,1024.63
2017-05-21T01:27:19.780Z,1024.63
2017-05-21T01:28:21.624Z,1024.64
2017-05-21T01:29:23.565Z,1024.66
2017-05-21T01:30:25.406Z,1024.64
2017-05-21T01:31:27.247Z,1024.66
2017-05-21T01:32:29.093Z,1024.63
2017-05-21T01:33:30.909Z,1024.68
2017-05-21T01:34:45.081Z,1024.69
2017-05-21T01:35:46.922Z,1024.69
2017-05-21T01:36:48.766Z,1024.73
2017-05-21T01:37:50.602Z,1024.71
2017-05-21T01:38:52.449Z,1024.71
2017-05-21T01:39:54.315Z,1024.70
2017-05-21T01:40:56.151Z,1024.72
2017-05-21T01:41:57.966Z,1024.67
2017-05-21T01:42:59.778Z,1024.70
2017-05-21T01:44:13.927Z,1024.69
2017-05-21T01:45:15.742Z,1024.71
2017-05-21T01:46:17.552Z,1024.66
2017-05-21T01:47:19.373Z,1024.68
2017-05-21T01:48:21.210Z,1024.68
2017-05-21T01:49:23.051Z,1024.66
2017-05-21T01:50:24.968Z,1024.67
2017-05-21T01:51:26.814Z,1024.67
2017-05-21T01:52:28.653Z,1024.68
2017-05-21T01:53:42.822Z,1024.67
2017-05-21T01:54:44.640Z,1024.66
2017-05-21T01:55:46.492Z,1024.68
2017-05-21T01:56:48.322Z,1024.68
2017-05-21T01:57:50.160Z,1024.67
2017-05-21T01:58:51.999Z,1024.69
2017-05-21T01:59:53.842Z,1024.69
2017-05-21T02:00:55.685Z,1024.68
2017-05-21T02:01:57.528Z,1024.70
2017-05-21T02:03:11.699Z,1024.72
2017-05-21T02:04:13.538Z,1024.73
2017-05-21T02:05:15.354Z,1024.71
2017-05-21T02:06:17.197Z,1024.71
2017-05-21T02:07:19.012Z,1024.78
2017-05-21T02:08:20.853Z,1024.76
2017-05-21T02:09:22.689Z,1024.74
2017-05-21T02:10:24.528Z,1024.77
2017-05-21T02:11:26.720Z,1024.77
2017-05-21T02:12:40.843Z,1024.76
2017-05-21T02:13:42.659Z,1024.78
2017-05-21T02:14:44.500Z,1024.68
2017-05-21T02:15:46.340Z,1024.71
2017-05-21T02:16:48.206Z,1024.68
2017-05-21T02:17:50.045Z,1024.66
2017-05-21T02:18:51.885Z,1024.66
2017-05-21T02:19:53.730Z,1024.65
2017-05-21T02:20:55.615Z,1024.70
2017-05-21T02:22:09.944Z,1024.66
2017-05-21T02:23:11.790Z,1024.64
2017-05-21T02:24:13.626Z,1024.70
2017-05-21T02:25:15.443Z,1024.66
2017-05-21T02:26:17.256Z,1024.68
2017-05-21T02:27:19.124Z,1024.73
2017-05-21T02:28:20.969Z,1024.66
2017-05-21T02:29:22.780Z,1024.65
2017-05-21T02:30:24.617Z,1024.68
2017-05-21T02:31:38.867Z,1024.69
2017-05-21T02:32:40.712Z,1024.66
2017-05-21T02:33:42.547Z,1024.65
2017-05-21T02:34:44.391Z,1024.66
2017-05-21T02:35:46.208Z,1024.69
2017-05-21T02:36:48.053Z,1024.67
2017-05-21T02:37:49.895Z,1024.67
2017-05-21T02:38:51.739Z,1024.67
2017-05-21T02:39:53.575Z,1024.69
2017-05-21T02:41:07.725Z,1024.65
2017-05-21T02:42:09.567Z,1024.71
2017-05-21T02:43:11.415Z,1024.70
2017-05-21T02:44:13.252Z,1024.69
2017-05-21T02:45:15.074Z,1024.72
2017-05-21T02:46:16.912Z,1024.75
2017-05-21T02:47:18.731Z,1024.75
2017-05-21T02:48:20.569Z,1024.82
2017-05-21T02:49:22.408Z,1024.81
2017-05-21T02:50:36.528Z,1024.85
2017-05-21T02:51:38.350Z,1024.88
2017-05-21T02:52:40.188Z,1024.94
2017-05-21T02:53:42.309Z,1024.89
2017-05-21T02:54:44.123Z,1024.91
2017-05-21T02:55:45.941Z,1024.92
2017-05-21T02:56:47.780Z,1024.94
2017-05-21T02:57:49.595Z,1024.89
2017-05-21T02:58:51.415Z,1024.90
2017-05-21T03:00:05.539Z,1024.94
2017-05-21T03:01:07.386Z,1024.94
2017-05-21T03:02:09.235Z,1024.89
2017-05-21T03:03:11.076Z,1024.92
2017-05-21T03:04:13.324Z,1024.96
2017-05-21T03:05:15.164Z,1024.96
2017-05-21T03:06:17.003Z,1024.98
2017-05-21T03:07:18.839Z,1024.97
2017-05-21T03:08:20.661Z,1024.99
2017-05-21T03:09:34.833Z,1025.00
2017-05-21T03:10:36.651Z,1025.01
2017-05-21T03:11:38.467Z,1025.03
2017-05-21T03:12:40.313Z,1025.06
2017-05-21T03:13:42.168Z,1025.07
2017-05-21T03:14:44.092Z,1025.05
2017-05-21T03:15:45.909Z,1025.08
2017-05-21T03:16:47.751Z,1025.08
2017-05-21T03:17:49.568Z,1025.07
2017-05-21T03:19:03.738Z,1025.07
2017-05-21T03:20:05.557Z,1025.07
2017-05-21T03:21:07.378Z,1025.11
2017-05-21T03:22:09.220Z,1025.14
2017-05-21T03:23:11.066Z,1025.15
2017-05-21T03:24:12.904Z,1025.19
2017-05-21T03:25:15.051Z,1025.13
2017-05-21T03:26:16.865Z,1025.20
2017-05-21T03:27:18.714Z,1025.18
2017-05-21T03:28:32.809Z,1025.23
2017-05-21T03:29:34.627Z,1025.22
2017-05-21T03:30:36.474Z,1025.19
2017-05-21T03:31:38.320Z,1025.21
2017-05-21T03:32:40.164Z,1025.19
2017-05-21T03:33:41.987Z,1025.20
2017-05-21T03:34:43.827Z,1025.20
2017-05-21T03:35:46.074Z,1025.21
2017-05-21T03:36:47.917Z,1025.24
2017-05-21T03:38:02.093Z,1025.24
2017-05-21T03:39:03.939Z,1025.26
2017-05-21T03:40:05.783Z,1025.26
2017-05-21T03:41:07.629Z,1025.26
2017-05-21T03:42:09.469Z,1025.28
2017-05-21T03:43:11.288Z,1025.25
2017-05-21T03:44:13.114Z,1025.29
2017-05-21T03:45:14.955Z,1025.30
2017-05-21T03:46:17.021Z,1025.31
2017-05-21T03:47:31.131Z,1025.33
2017-05-21T03:48:32.972Z,1025.34
2017-05-21T03:49:34.789Z,1025.38
2017-05-21T03:50:36.616Z,1025.45
2017-05-21T03:51:38.464Z,1025.43
2017-05-21T03:52:40.313Z,1025.46
2017-05-21T03:53:42.149Z,1025.47
2017-05-21T03:54:43.971Z,1025.46
2017-05-21T03:55:45.796Z,1025.51
2017-05-21T03:57:00.430Z,1025.48
2017-05-21T03:58:02.254Z,1025.52
2017-05-21T03:59:04.097Z,1025.54
2017-05-21T04:00:05.941Z,1025.57
2017-05-21T04:01:07.763Z,1025.58
2017-05-21T04:02:09.630Z,1025.61
2017-05-21T04:03:11.481Z,1025.63
2017-05-21T04:04:13.319Z,1025.64
2017-05-21T04:05:15.141Z,1025.74
2017-05-21T04:06:29.500Z,1025.69
2017-05-21T04:07:31.347Z,1025.71
2017-05-21T04:08:33.190Z,1025.75
2017-05-21T04:09:35.038Z,1025.73
2017-05-21T04:10:36.887Z,1025.76
2017-05-21T04:11:38.730Z,1025.78
2017-05-21T04:12:40.594Z,1025.83
2017-05-21T04:13:42.425Z,1025.80
2017-05-21T04:14:44.266Z,1025.82
2017-05-21T04:15:58.453Z,1025.84
2017-05-21T04:17:00.271Z,1025.85
2017-05-21T04:18:02.548Z,1025.90
2017-05-21T04:19:04.393Z,1025.92
2017-05-21T04:20:06.219Z,1025.92
2017-05-21T04:21:08.043Z,1025.96
2017-05-21T04:22:09.865Z,1025.98
2017-05-21T04:23:11.722Z,1026.03
2017-05-21T04:24:13.569Z,1026.01
2017-05-21T04:25:27.705Z,1026.03
2017-05-21T04:26:29.552Z,1026.05
2017-05-21T04:27:31.382Z,1026.06
2017-05-21T04:28:33.636Z,1026.07
2017-05-21T04:29:35.458Z,1026.08
2017-05-21T04:30:37.308Z,1026.04
2017-05-21T04:31:39.138Z,1026.07
2017-05-21T04:32:40.996Z,1026.06
2017-05-21T04:33:42.849Z,1026.07
2017-05-21T04:34:57.035Z,1026.08
2017-05-21T04:35:58.882Z,1026.06
2017-05-21T04:37:00.738Z,1026.09
2017-05-21T04:38:02.564Z,1026.11
2017-05-21T04:39:04.817Z,1026.12
2017-05-21T04:40:06.671Z,1026.08
2017-05-21T04:41:08.533Z,1026.12
2017-05-21T04:42:10.379Z,1026.13
2017-05-21T04:43:12.203Z,1026.12
2017-05-21T04:44:26.415Z,1026.16
2017-05-21T04:45:28.271Z,1026.19
2017-05-21T04:46:30.089Z,1026.17
2017-05-21T04:47:31.923Z,1026.20
2017-05-21T04:48:33.773Z,1026.18
2017-05-21T04:49:35.829Z,1026.17
2017-05-21T04:50:37.683Z,1026.19
2017-05-21T04:51:39.542Z,1026.27
2017-05-21T04:52:41.392Z,1026.27
2017-05-21T04:53:55.506Z,1026.28
2017-05-21T04:54:57.353Z,1026.32
2017-05-21T04:55:59.185Z,1026.35
2017-05-21T04:57:01.038Z,1026.38
2017-05-21T04:58:02.869Z,1026.41
2017-05-21T04:59:04.727Z,1026.43
2017-05-21T05:00:06.918Z,1026.48
2017-05-21T05:01:08.750Z,1026.52
2017-05-21T05:02:10.609Z,1026.59
2017-05-21T05:03:24.740Z,1026.63
2017-05-21T05:04:26.574Z,1026.61
2017-05-21T05:05:28.421Z,1026.65
2017-05-21T05:06:30.273Z,1026.70
2017-05-21T05:07:32.100Z,1026.74
2017-05-21T05:08:33.954Z,1026.73
2017-05-21T05:09:35.802Z,1026.76
2017-05-21T05:10:37.679Z,1026.79
2017-05-21T05:11:39.538Z,1026.83
2017-05-21T05:12:53.675Z,1026.80
2017-05-21T05:13:55.500Z,1026.70
2017-05-21T05:14:57.334Z,1026.70
2017-05-21T05:15:59.483Z,1026.70
2017-05-21T05:17:01.338Z,1026.68
2017-05-21T05:18:03.190Z,1026.63
2017-05-21T05:19:05.015Z,1026.61
2017-05-21T05:20:06.869Z,1026.59
2017-05-21T05:21:08.817Z,1026.59
2017-05-21T05:22:22.928Z,1026.59
2017-05-21T05:23:24.780Z,1026.55
2017-05-21T05:24:26.631Z,1026.57
2017-05-21T05:25:28.482Z,1026.61
2017-05-21T05:26:30.336Z,1026.59
2017-05-21T05:27:32.189Z,1026.56
2017-05-21T05:28:34.014Z,1026.57
2017-05-21T05:29:35.866Z,1026.54
2017-05-21T05:30:37.699Z,1026.48
2017-05-21T05:31:51.877Z,1026.50
2017-05-21T05:32:53.732Z,1026.53
2017-05-21T05:33:55.616Z,1026.50
2017-05-21T05:34:57.419Z,1026.51
2017-05-21T05:35:59.280Z,1026.55
2017-05-21T05:37:01.332Z,1026.49
2017-05-21T05:38:03.151Z,1026.54
2017-05-21T05:39:05.006Z,1026.54
2017-05-21T05:40:06.860Z,1026.50
2017-05-21T05:41:21.388Z,1026.62
2017-05-21T05:42:23.220Z,1026.59
2017-05-21T05:43:25.045Z,1026.59
2017-05-21T05:44:26.881Z,1026.60
2017-05-21T05:45:28.722Z,1026.62
2017-05-21T05:46:30.577Z,1026.62
2017-05-21T05:47:32.447Z,1026.65
2017-05-21T05:48:34.276Z,1026.63
2017-05-21T05:49:36.098Z,1026.65
2017-05-21T05:50:50.259Z,1026.69
2017-05-21T05:51:52.108Z,1026.76
2017-05-21T05:52:54.137Z,1026.64
2017-05-21T05:53:56.017Z,1026.70
2017-05-21T05:54:57.929Z,1026.72
2017-05-21T05:55:59.773Z,1026.79
2017-05-21T05:57:01.628Z,1026.64
2017-05-21T05:58:03.676Z,1026.74
2017-05-21T05:59:05.502Z,1026.67
2017-05-21T06:00:19.664Z,1026.73
2017-05-21T06:01:21.491Z,1026.72
2017-05-21T06:02:23.339Z,1026.71
2017-05-21T06:03:25.290Z,1026.73
2017-05-21T06:04:27.122Z,1026.71
2017-05-21T06:05:28.946Z,1026.76
2017-05-21T06:06:30.795Z,1026.74
2017-05-21T06:07:32.624Z,1026.73
2017-05-21T06:08:34.469Z,1026.88
2017-05-21T06:09:48.608Z,1026.82
2017-05-21T06:10:50.464Z,1026.87
2017-05-21T06:11:52.310Z,1026.90
2017-05-21T06:12:54.137Z,1026.93
2017-05-21T06:13:56.094Z,1026.90
2017-05-21T06:14:57.949Z,1026.98
2017-05-21T06:15:59.767Z,1026.94
2017-05-21T06:17:01.625Z,1026.88
2017-05-21T06:18:03.464Z,1026.95
2017-05-21T06:19:17.607Z,1027.00
2017-05-21T06:20:19.432Z,1026.90
2017-05-21T06:21:21.285Z,1026.97
2017-05-21T06:22:23.141Z,1027.02
2017-05-21T06:23:24.965Z,1027.02
2017-05-21T06:24:26.839Z,1027.04
2017-05-21T06:25:28.694Z,1027.07
2017-05-21T06:26:30.547Z,1027.11
2017-05-21T06:27:32.394Z,1027.12
2017-05-21T06:28:46.579Z,1027.05
2017-05-21T06:29:48.429Z,1027.10
2017-05-21T06:30:50.254Z,1027.12
2017-05-21T06:31:52.081Z,1027.06
2017-05-21T06:32:53.936Z,1027.04
2017-05-21T06:33:55.782Z,1027.02
2017-05-21T06:34:57.661Z,1027.02
2017-05-21T06:35:59.484Z,1026.99
2017-05-21T06:37:01.345Z,1026.99
2017-05-21T06:38:15.443Z,1027.19
2017-05-21T06:39:17.292Z,1027.14
2017-05-21T06:40:19.175Z,1027.09
2017-05-21T06:41:21.021Z,1027.02
2017-05-21T06:42:22.855Z,1027.05
2017-05-21T06:43:24.687Z,1027.02
2017-05-21T06:44:26.508Z,1027.03
2017-05-21T06:45:28.504Z,1026.99
2017-05-21T06:46:30.361Z,1027.11
2017-05-21T06:47:44.488Z,1027.09
2017-05-21T06:48:46.310Z,1026.99
2017-05-21T06:49:48.138Z,1027.03
2017-05-21T06:50:50.164Z,1027.03
2017-05-21T06:51:51.994Z,1027.03
2017-05-21T06:52:53.843Z,1027.00
2017-05-21T06:53:55.667Z,1027.08
2017-05-21T06:54:57.500Z,1027.00
2017-05-21T06:55:59.548Z,1027.06
2017-05-21T06:57:13.683Z,1027.04
2017-05-21T06:58:15.532Z,1027.09
2017-05-21T06:59:17.356Z,1027.04
2017-05-21T07:00:19.188Z,1027.05
2017-05-21T07:01:21.035Z,1027.04
2017-05-21T07:02:22.866Z,1027.11
2017-05-21T07:03:24.717Z,1027.15
2017-05-21T07:04:26.566Z,1027.11
2017-05-21T07:05:28.417Z,1027.11
2017-05-21T07:06:42.872Z,1027.11
2017-05-21T07:07:44.701Z,1027.11
2017-05-21T07:08:46.524Z,1027.19
2017-05-21T07:09:48.355Z,1027.20
2017-05-21T07:10:50.210Z,1027.24
2017-05-21T07:11:52.382Z,1027.29
2017-05-21T07:12:54.233Z,1027.15
2017-05-21T07:13:56.086Z,1027.17
2017-05-21T07:14:57.939Z,1027.14
2017-05-21T07:16:12.048Z,1027.33
2017-05-21T07:17:13.900Z,1027.17
2017-05-21T07:18:15.757Z,1027.16
2017-05-21T07:19:17.605Z,1027.15
2017-05-21T07:20:19.464Z,1027.17
2017-05-21T07:21:21.283Z,1027.18
2017-05-21T07:22:23.187Z,1027.20
2017-05-21T07:23:25.011Z,1027.26
2017-05-21T07:24:26.862Z,1027.17
2017-05-21T07:25:41.014Z,1027.18
2017-05-21T07:26:42.870Z,1027.21
2017-05-21T07:27:44.727Z,1027.17
2017-05-21T07:28:46.581Z,1027.20
2017-05-21T07:29:48.398Z,1027.22
2017-05-21T07:30:50.228Z,1027.16
2017-05-21T07:31:52.074Z,1027.12
2017-05-21T07:32:53.948Z,1027.16
2017-05-21T07:33:55.773Z,1027.18
2017-05-21T07:35:09.887Z,1027.12
2017-05-21T07:36:11.737Z,1027.22
2017-05-21T07:37:13.591Z,1027.19
2017-05-21T07:38:15.440Z,1027.13
2017-05-21T07:39:17.362Z,1027.15
2017-05-21T07:40:19.171Z,1027.24
2017-05-21T07:41:21.017Z,1027.15
2017-05-21T07:42:22.846Z,1027.15
2017-05-21T07:43:24.947Z,1027.29
2017-05-21T07:44:39.136Z,1027.23
2017-05-21T07:45:40.991Z,1027.12
2017-05-21T07:46:42.839Z,1027.13
2017-05-21T07:47:44.669Z,1027.17
2017-05-21T07:48:46.517Z,1027.13
2017-05-21T07:49:48.346Z,1027.15
2017-05-21T07:50:50.203Z,1027.28
2017-05-21T07:51:52.051Z,1027.17
2017-05-21T07:52:53.905Z,1027.19
2017-05-21T07:54:08.333Z,1027.31
2017-05-21T07:55:10.180Z,1027.19
2017-05-21T07:56:12.003Z,1027.18
2017-05-21T07:57:13.829Z,1027.17
2017-05-21T07:58:15.749Z,1027.30
2017-05-21T07:59:17.839Z,1027.20
2017-05-21T08:00:19.667Z,1027.28
2017-05-21T08:01:21.515Z,1027.37
2017-05-21T08:02:23.375Z,1027.35
2017-05-21T08:03:37.793Z,1027.28
2017-05-21T08:04:39.651Z,1027.27
2017-05-21T08:05:41.495Z,1027.19
2017-05-21T08:06:43.346Z,1027.55
2017-05-21T08:07:45.202Z,1027.44
2017-05-21T08:08:47.055Z,1027.29
2017-05-21T08:09:48.958Z,1027.19
2017-05-21T08:10:50.805Z,1027.27
2017-05-21T08:11:52.626Z,1027.17
2017-05-21T08:13:06.787Z,1027.19
2017-05-21T08:14:08.608Z,1027.21
2017-05-21T08:15:10.487Z,1027.21
2017-05-21T08:16:12.454Z,1027.23
2017-05-21T08:17:14.379Z,1027.26
2017-05-21T08:18:16.232Z,1027.26
2017-05-21T08:19:18.087Z,1027.37
2017-05-21T08:20:20.035Z,1027.39
2017-05-21T08:21:21.892Z,1027.33
2017-05-21T08:22:36.026Z,1027.24
2017-05-21T08:23:37.875Z,1027.48
2017-05-21T08:24:39.699Z,1027.27
2017-05-21T08:25:44.759Z,1027.41
2017-05-21T08:26:46.614Z,1027.31
2017-05-21T08:27:48.623Z,1027.28
2017-05-21T08:28:50.454Z,1027.26
2017-05-21T08:29:52.307Z,1027.26
2017-05-21T08:30:54.346Z,1027.28
2017-05-21T08:32:08.539Z,1027.29
2017-05-21T08:33:10.362Z,1027.40
2017-05-21T08:34:12.213Z,1027.44
2017-05-21T08:35:14.066Z,1027.54
2017-05-21T08:36:15.923Z,1027.33
2017-05-21T08:37:17.780Z,1027.33
2017-05-21T08:38:19.597Z,1027.33
2017-05-21T08:39:21.451Z,1027.38
2017-05-21T08:40:23.281Z,1027.38
2017-05-21T08:41:37.413Z,1027.35
2017-05-21T08:42:39.268Z,1027.37
2017-05-21T08:43:41.203Z,1027.37
2017-05-21T08:44:43.028Z,1027.44
2017-05-21T08:45:44.855Z,1027.45
2017-05-21T08:46:46.725Z,1027.48
2017-05-21T08:47:48.585Z,1027.50
2017-05-21T08:48:50.438Z,1027.53
2017-05-21T08:49:52.305Z,1027.60
2017-05-21T08:51:06.595Z,1027.53
2017-05-21T08:52:08.487Z,1027.49
2017-05-21T08:53:10.345Z,1027.50
2017-05-21T08:54:12.196Z,1027.52
2017-05-21T08:55:14.055Z,1027.54
2017-05-21T08:56:15.906Z,1027.54
2017-05-21T08:57:17.933Z,1027.60
2017-05-21T08:58:19.763Z,1027.66
2017-05-21T08:59:21.615Z,1027.49
2017-05-21T09:00:35.796Z,1027.63
2017-05-21T09:01:37.652Z,1027.61
2017-05-21T09:02:40.184Z,1027.61
2017-05-21T09:03:42.134Z,1027.63
2017-05-21T09:04:44.025Z,1027.71
2017-05-21T09:05:45.851Z,1027.72
2017-05-21T09:06:47.687Z,1027.67
2017-05-21T09:07:49.536Z,1027.85
2017-05-21T09:08:51.358Z,1027.80
2017-05-21T09:10:05.630Z,1027.72
2017-05-21T09:11:07.470Z,1027.65
2017-05-21T09:12:09.299Z,1027.62
2017-05-21T09:13:11.254Z,1027.59
2017-05-21T09:14:13.108Z,1027.64
2017-05-21T09:15:14.930Z,1027.53
2017-05-21T09:16:16.761Z,1027.61
2017-05-21T09:17:18.622Z,1027.60
2017-05-21T09:18:20.469Z,1027.53
2017-05-21T09:19:34.626Z,1027.58
2017-05-21T09:20:36.454Z,1027.46
2017-05-21T09:21:38.306Z,1027.42
2017-05-21T09:22:40.253Z,1027.45
2017-05-21T09:23:42.191Z,1027.43
2017-05-21T09:24:44.016Z,1027.38
2017-05-21T09:25:45.859Z,1027.40
2017-05-21T09:26:47.712Z,1027.55
2017-05-21T09:27:49.543Z,1027.37
2017-05-21T09:29:03.725Z,1027.61
2017-05-21T09:30:05.571Z,1027.42
2017-05-21T09:31:07.400Z,1027.44
2017-05-21T09:32:09.234Z,1027.56
2017-05-21T09:33:11.083Z,1027.49
2017-05-21T09:34:13.284Z,1027.46
2017-05-21T09:35:15.139Z,1027.47
2017-05-21T09:36:17.045Z,1027.34
2017-05-21T09:37:18.927Z,1027.31
2017-05-21T09:38:33.372Z,1027.40
2017-05-21T09:39:35.220Z,1027.47
2017-05-21T09:40:37.075Z,1027.50
2017-05-21T09:41:38.901Z,1027.40
2017-05-21T09:42:40.765Z,1027.49
2017-05-21T09:43:42.613Z,1027.62
2017-05-21T09:44:44.488Z,1027.56
2017-05-21T09:45:46.334Z,1027.64
2017-05-21T09:46:48.166Z,1027.41
2017-05-21T09:48:02.352Z,1027.29
2017-05-21T09:49:04.206Z,1027.41
2017-05-21T09:50:06.089Z,1027.39
2017-05-21T09:51:07.941Z,1027.42
2017-05-21T09:52:09.769Z,1027.46
2017-05-21T09:53:11.618Z,1027.64
2017-05-21T09:54:13.453Z,1027.66
2017-05-21T09:55:15.503Z,1027.57
2017-05-21T09:56:17.363Z,1027.50
2017-05-21T09:57:31.492Z,1027.62
2017-05-21T09:58:33.326Z,1027.53
2017-05-21T09:59:35.178Z,1027.49
2017-05-21T10:00:37.036Z,1027.46
2017-05-21T10:01:38.887Z,1027.47
2017-05-21T10:02:40.741Z,1027.66
2017-05-21T10:03:42.591Z,1027.31
2017-05-21T10:04:44.424Z,1027.36
2017-05-21T10:05:46.299Z,1027.38
2017-05-21T10:07:00.435Z,1027.39
2017-05-21T10:08:02.370Z,1027.50
2017-05-21T10:09:04.280Z,1027.43
2017-05-21T10:10:06.130Z,1027.44
2017-05-21T10:11:08.108Z,1027.51
2017-05-21T10:12:09.960Z,1027.47
2017-05-21T10:13:11.795Z,1027.44
2017-05-21T10:14:13.644Z,1027.50
2017-05-21T10:15:15.479Z,1027.59
2017-05-21T10:16:29.655Z,1027.49
2017-05-21T10:17:31.513Z,1027.44
2017-05-21T10:18:33.363Z,1027.39
2017-05-21T10:19:35.192Z,1027.40
2017-05-21T10:20:37.052Z,1027.35
2017-05-21T10:21:39.104Z,1027.36
2017-05-21T10:22:40.931Z,1027.41
2017-05-21T10:23:42.758Z,1027.56
2017-05-21T10:24:44.609Z,1027.36
2017-05-21T10:25:58.722Z,1027.37
2017-05-21T10:27:00.547Z,1027.36
2017-05-21T10:28:02.369Z,1027.47
2017-05-21T10:29:04.227Z,1027.44
2017-05-21T10:30:06.086Z,1027.43
2017-05-21T10:31:07.937Z,1027.60
2017-05-21T10:32:09.814Z,1027.57
2017-05-21T10:33:11.643Z,1027.61
2017-05-21T10:34:13.464Z,1027.69
2017-05-21T10:35:27.608Z,1027.67
2017-05-21T10:36:29.436Z,1027.58
2017-05-21T10:37:31.387Z,1027.57
2017-05-21T10:38:33.241Z,1027.58
2017-05-21T10:39:35.087Z,1027.48
2017-05-21T10:40:36.923Z,1027.50
2017-05-21T10:41:38.777Z,1027.38
2017-05-21T10:42:40.799Z,1027.61
2017-05-21T10:43:42.653Z,1027.35
2017-05-21T10:44:56.759Z,1027.46
2017-05-21T10:45:58.591Z,1027.18
2017-05-21T10:47:00.441Z,1027.20
2017-05-21T10:48:02.369Z,1027.18
2017-05-21T10:49:04.195Z,1027.11
2017-05-21T10:50:06.051Z,1027.18
2017-05-21T10:51:07.897Z,1027.14
2017-05-21T10:52:09.725Z,1027.12
2017-05-21T10:53:11.577Z,1027.18
2017-05-21T10:54:25.714Z,1027.14
2017-05-21T10:55:27.568Z,1027.30
2017-05-21T10:56:29.423Z,1027.23
2017-05-21T10:57:31.255Z,1027.31
2017-05-21T10:58:33.138Z,1027.27
2017-05-21T10:59:34.971Z,1027.25
2017-05-21T11:00:36.821Z,1027.34
2017-05-21T11:01:38.653Z,1027.37
2017-05-21T11:02:40.508Z,1027.24
2017-05-21T11:03:54.645Z,1027.19
2017-05-21T11:04:56.504Z,1027.16
2017-05-21T11:05:58.373Z,1027.04
2017-05-21T11:07:00.405Z,1027.05
2017-05-21T11:08:02.277Z,1027.02
2017-05-21T11:09:04.133Z,1027.01
2017-05-21T11:10:05.984Z,1027.07
2017-05-21T11:11:07.834Z,1027.12
2017-05-21T11:12:09.698Z,1027.09
2017-05-21T11:13:23.795Z,1027.22
2017-05-21T11:14:25.626Z,1027.19
2017-05-21T11:15:27.486Z,1027.05
2017-05-21T11:16:29.338Z,1027.12
2017-05-21T11:17:31.168Z,1027.04
2017-05-21T11:18:33.077Z,1027.05
2017-05-21T11:19:34.910Z,1026.97
2017-05-21T11:20:36.773Z,1027.08
2017-05-21T11:21:38.690Z,1026.89
2017-05-21T11:22:53.040Z,1027.01
2017-05-21T11:23:54.916Z,1027.04
2017-05-21T11:24:56.790Z,1027.00
2017-05-21T11:25:58.673Z,1027.11
2017-05-21T11:27:00.537Z,1027.10
2017-05-21T11:28:02.403Z,1027.17
2017-05-21T11:29:04.322Z,1027.14
2017-05-21T11:30:06.310Z,1027.15
2017-05-21T11:31:08.173Z,1027.08
2017-05-21T11:32:22.317Z,1026.97
2017-05-21T11:33:24.196Z,1027.02
2017-05-21T11:34:26.046Z,1027.06
2017-05-21T11:35:27.934Z,1027.21
2017-05-21T11:36:29.804Z,1027.28
2017-05-21T11:37:31.634Z,1027.31
2017-05-21T11:38:33.509Z,1027.14
2017-05-21T11:39:35.321Z,1027.18
2017-05-21T11:40:37.444Z,1027.12
2017-05-21T11:41:51.606Z,1027.39
2017-05-21T11:42:53.458Z,1027.22
2017-05-21T11:43:55.293Z,1027.27
2017-05-21T11:44:57.226Z,1027.21
2017-05-21T11:45:59.167Z,1027.14
2017-05-21T11:47:01.020Z,1027.19
2017-05-21T11:48:02.879Z,1027.05
2017-05-21T11:49:04.767Z,1026.97
2017-05-21T11:50:06.719Z,1026.95
2017-05-21T11:51:20.898Z,1026.91
2017-05-21T11:52:22.814Z,1026.91
2017-05-21T11:53:24.680Z,1027.03
2017-05-21T11:54:26.540Z,1026.94
2017-05-21T11:55:28.396Z,1027.09
2017-05-21T11:56:30.247Z,1027.10
2017-05-21T11:57:32.229Z,1027.07
2017-05-21T11:58:34.092Z,1027.16
2017-05-21T11:59:35.945Z,1027.07
2017-05-21T12:00:50.050Z,1027.06
2017-05-21T12:01:51.904Z,1027.00
2017-05-21T12:02:53.761Z,1027.40
2017-05-21T12:03:55.614Z,1027.21
2017-05-21T12:04:57.479Z,1027.04
2017-05-21T12:05:59.340Z,1027.04
2017-05-21T12:07:01.193Z,1027.05
2017-05-21T12:08:03.047Z,1027.04
2017-05-21T12:09:04.899Z,1027.16
2017-05-21T12:10:19.033Z,1027.06
2017-05-21T12:11:20.866Z,1026.92
2017-05-21T12:12:22.894Z,1026.94
2017-05-21T12:13:24.809Z,1026.87
2017-05-21T12:14:26.645Z,1026.84
2017-05-21T12:15:28.500Z,1026.86
2017-05-21T12:16:30.360Z,1026.86
2017-05-21T12:17:32.212Z,1026.86
2017-05-21T12:18:34.042Z,1026.83
2017-05-21T12:19:48.176Z,1026.89
2017-05-21T12:20:50.008Z,1027.00
2017-05-21T12:21:51.860Z,1027.05
2017-05-21T12:22:53.720Z,1027.13
2017-05-21T12:23:55.570Z,1027.15
2017-05-21T12:24:57.396Z,1027.19
2017-05-21T12:25:59.225Z,1027.15
2017-05-21T12:27:01.081Z,1027.13
2017-05-21T12:28:03.185Z,1027.14
2017-05-21T12:29:17.345Z,1027.22
2017-05-21T12:30:19.171Z,1027.18
2017-05-21T12:31:21.034Z,1027.25
2017-05-21T12:32:22.891Z,1027.14
2017-05-21T12:33:24.738Z,1027.16
2017-05-21T12:34:26.568Z,1027.09
2017-05-21T12:35:28.420Z,1027.13
2017-05-21T12:36:30.277Z,1026.99
2017-05-21T12:37:32.133Z,1026.99
2017-05-21T12:38:46.477Z,1026.95
2017-05-21T12:39:48.329Z,1027.04
2017-05-21T12:40:50.179Z,1027.03
2017-05-21T12:41:52.012Z,1027.02
2017-05-21T12:42:53.855Z,1027.00
2017-05-21T12:43:55.740Z,1027.02
2017-05-21T12:44:57.590Z,1027.04